Terminal Aerodrome Forecast
Issued by NWS Wakefield, VA

Home | Current Version | Previous Version | Text Only | Print | Product List | Glossary On
Versions: 1 2 3 4 5 6 7 8 9 10 11 12 13 14 15 16 17 18 19
000
FTUS41 KAKQ 260533
TAFSBY
TAF
KSBY 260533Z 2606/2706 00000KT P6SM BKN080
     FM261000 32003KT P6SM SCT150
     FM261600 23007KT P6SM SCT050
     FM270000 16003KT P6SM SCT150=

USA.gov is the U.S. government's official web portal to all federal, state and local government web resources and services.